createdAt,value
2023-01-27T00:10:58.730Z,98420
2023-01-27T00:22:58.611Z,98430
2023-01-27T00:34:58.636Z,98430
2023-01-27T00:46:58.623Z,98420
2023-01-27T00:58:58.736Z,98420
2023-01-27T01:10:58.720Z,98420
2023-01-27T01:22:58.627Z,98430
2023-01-27T01:34:58.617Z,98430
2023-01-27T01:46:58.749Z,98440
2023-01-27T01:58:58.620Z,98450
2023-01-27T02:10:58.778Z,98440
2023-01-27T02:22:58.620Z,98440
2023-01-27T02:34:58.737Z,98440
2023-01-27T02:46:58.786Z,98430
2023-01-27T02:58:59.210Z,98440
2023-01-27T03:10:58.705Z,98440
2023-01-27T03:22:58.733Z,98450
2023-01-27T03:34:58.710Z,98460
2023-01-27T03:46:58.690Z,98470
2023-01-27T03:58:58.703Z,98470
2023-01-27T04:10:58.615Z,98470
2023-01-27T04:22:58.620Z,98460
2023-01-27T04:34:58.712Z,98470
2023-01-27T04:46:58.729Z,98480
2023-01-27T04:58:58.736Z,98480
2023-01-27T05:10:58.624Z,98490
2023-01-27T05:22:58.726Z,98500
2023-01-27T05:34:58.937Z,98520
2023-01-27T05:46:58.745Z,98520
2023-01-27T05:58:58.657Z,98520
2023-01-27T06:10:58.693Z,98530
2023-01-27T06:22:58.645Z,98550
2023-01-27T06:34:58.712Z,98550
2023-01-27T06:46:58.639Z,98570
2023-01-27T06:58:58.618Z,98580
2023-01-27T07:10:58.708Z,98570
2023-01-27T07:22:58.746Z,98580
2023-01-27T07:34:58.615Z,98600
2023-01-27T07:46:58.697Z,98600
2023-01-27T07:58:58.725Z,98600
2023-01-27T08:10:58.612Z,98610
2023-01-27T08:22:58.624Z,98620
2023-01-27T08:34:58.683Z,98630
2023-01-27T08:46:58.692Z,98650
2023-01-27T08:58:58.688Z,98650
2023-01-27T09:10:58.729Z,98670
2023-01-27T09:22:58.692Z,98670
2023-01-27T09:34:58.699Z,98680
2023-01-27T09:47:00.049Z,98670
2023-01-27T09:58:58.732Z,98680
2023-01-27T10:10:58.622Z,98690
2023-01-27T10:22:58.622Z,98700
2023-01-27T10:34:58.623Z,98700
2023-01-27T10:46:58.839Z,98710
2023-01-27T10:58:59.045Z,98720
2023-01-27T11:10:58.699Z,98720
2023-01-27T11:22:58.638Z,98720
2023-01-27T11:34:58.726Z,98720
2023-01-27T11:46:58.711Z,98720
2023-01-27T11:58:58.743Z,98710
2023-01-27T12:10:58.740Z,98700
2023-01-27T12:22:58.704Z,98690
2023-01-27T12:34:58.779Z,98680
2023-01-27T12:46:58.677Z,98670
2023-01-27T12:58:58.706Z,98670
2023-01-27T13:10:58.711Z,98660
2023-01-27T13:22:58.709Z,98670
2023-01-27T13:34:58.619Z,98680
2023-01-27T13:46:58.623Z,98690
2023-01-27T13:58:58.690Z,98690
2023-01-27T14:10:58.697Z,98690
2023-01-27T14:22:58.622Z,98710
2023-01-27T14:34:58.610Z,98720
2023-01-27T14:46:58.696Z,98730
2023-01-27T14:58:58.707Z,98740
2023-01-27T15:10:58.708Z,98740
2023-01-27T15:22:58.626Z,98740
2023-01-27T15:34:58.688Z,98750
2023-01-27T15:46:58.637Z,98770
2023-01-27T15:58:58.629Z,98770
2023-01-27T16:10:58.638Z,98780
2023-01-27T16:22:58.894Z,98770
2023-01-27T16:34:58.737Z,98770
2023-01-27T16:47:05.056Z,98790
2023-01-27T16:58:58.624Z,98800
2023-01-27T17:10:58.683Z,98810
2023-01-27T17:22:58.729Z,98810
2023-01-27T17:34:58.623Z,98820
2023-01-27T17:46:58.625Z,98820
2023-01-27T17:58:58.684Z,98840
2023-01-27T18:10:58.732Z,98840
2023-01-27T18:22:58.730Z,98860
2023-01-27T18:34:58.683Z,98850
2023-01-27T18:46:58.643Z,98850
2023-01-27T18:58:58.726Z,98880
2023-01-27T19:10:58.619Z,98870
2023-01-27T19:22:58.629Z,98870
2023-01-27T19:34:58.619Z,98880
2023-01-27T19:46:58.719Z,98880
2023-01-27T19:58:58.683Z,98890
2023-01-27T20:10:58.609Z,98890
2023-01-27T20:22:58.692Z,98900
2023-01-27T20:34:58.684Z,98910
2023-01-27T20:46:58.629Z,98910
2023-01-27T20:58:58.706Z,98920
2023-01-27T21:10:58.685Z,98930
2023-01-27T21:22:58.705Z,98920
2023-01-27T21:34:58.620Z,98930
2023-01-27T21:46:58.827Z,98930
2023-01-27T21:58:58.699Z,98930
2023-01-27T22:10:58.620Z,98930
2023-01-27T22:22:58.754Z,98920
2023-01-27T22:34:58.648Z,98920
2023-01-27T22:46:58.707Z,98920
2023-01-27T22:58:58.659Z,98910
2023-01-27T23:10:58.745Z,98910
2023-01-27T23:22:58.617Z,98930
2023-01-27T23:34:58.616Z,98920
2023-01-27T23:46:58.618Z,98930
2023-01-27T23:58:58.741Z,98940
